sensor_id;sensor_type;location;lat;lon;timestamp;P1;durP1;ratioP1;P2;durP2;ratioP2
24555;SDS011;12725;49.440;10.954;2023-05-14T00:03:54;11.18;;;5.70;;
24555;SDS011;12725;49.440;10.954;2023-05-14T00:07:54;17.20;;;6.30;;
24555;SDS011;12725;49.440;10.954;2023-05-14T00:11:55;11.33;;;5.93;;
24555;SDS011;12725;49.440;10.954;2023-05-14T00:15:55;9.15;;;5.28;;
24555;SDS011;12725;49.440;10.954;2023-05-14T00:19:55;10.83;;;6.70;;
24555;SDS011;12725;49.440;10.954;2023-05-14T00:23:56;10.90;;;5.47;;
24555;SDS011;12725;49.440;10.954;2023-05-14T00:27:56;12.57;;;6.30;;
24555;SDS011;12725;49.440;10.954;2023-05-14T00:31:57;11.48;;;5.20;;
24555;SDS011;12725;49.440;10.954;2023-05-14T00:35:57;10.23;;;4.93;;
24555;SDS011;12725;49.440;10.954;2023-05-14T00:39:57;8.85;;;4.38;;
24555;SDS011;12725;49.440;10.954;2023-05-14T00:43:58;7.35;;;5.18;;
24555;SDS011;12725;49.440;10.954;2023-05-14T00:47:58;10.10;;;4.53;;
24555;SDS011;12725;49.440;10.954;2023-05-14T00:51:59;8.45;;;4.30;;
24555;SDS011;12725;49.440;10.954;2023-05-14T00:55:59;5.60;;;4.03;;
24555;SDS011;12725;49.440;10.954;2023-05-14T00:59:59;5.27;;;4.00;;
24555;SDS011;12725;49.440;10.954;2023-05-14T01:04:00;9.35;;;4.82;;
24555;SDS011;12725;49.440;10.954;2023-05-14T01:08:03;8.55;;;3.90;;
24555;SDS011;12725;49.440;10.954;2023-05-14T01:12:28;6.80;;;4.95;;
24555;SDS011;12725;49.440;10.954;2023-05-14T01:16:31;5.53;;;3.97;;
24555;SDS011;12725;49.440;10.954;2023-05-14T01:20:32;12.80;;;4.75;;
24555;SDS011;12725;49.440;10.954;2023-05-14T01:24:33;5.07;;;3.72;;
24555;SDS011;12725;49.440;10.954;2023-05-14T01:28:33;7.90;;;4.70;;
24555;SDS011;12725;49.440;10.954;2023-05-14T01:32:35;3.78;;;2.83;;
24555;SDS011;12725;49.440;10.954;2023-05-14T01:36:36;9.80;;;4.15;;
24555;SDS011;12725;49.440;10.954;2023-05-14T01:40:37;12.05;;;4.57;;
24555;SDS011;12725;49.440;10.954;2023-05-14T01:44:38;5.65;;;4.22;;
24555;SDS011;12725;49.440;10.954;2023-05-14T01:48:38;7.50;;;4.47;;
24555;SDS011;12725;49.440;10.954;2023-05-14T01:52:40;7.18;;;4.18;;
24555;SDS011;12725;49.440;10.954;2023-05-14T01:56:40;7.38;;;4.07;;
24555;SDS011;12725;49.440;10.954;2023-05-14T02:00:41;5.53;;;3.67;;
24555;SDS011;12725;49.440;10.954;2023-05-14T02:04:41;7.73;;;4.00;;
24555;SDS011;12725;49.440;10.954;2023-05-14T02:08:42;5.18;;;3.80;;
24555;SDS011;12725;49.440;10.954;2023-05-14T02:12:42;4.18;;;3.30;;
24555;SDS011;12725;49.440;10.954;2023-05-14T02:16:43;5.30;;;4.00;;
24555;SDS011;12725;49.440;10.954;2023-05-14T02:20:43;6.20;;;3.43;;
24555;SDS011;12725;49.440;10.954;2023-05-14T02:24:44;6.20;;;3.95;;
24555;SDS011;12725;49.440;10.954;2023-05-14T02:28:44;5.50;;;3.60;;
24555;SDS011;12725;49.440;10.954;2023-05-14T02:32:44;6.05;;;4.15;;
24555;SDS011;12725;49.440;10.954;2023-05-14T02:36:45;5.72;;;3.80;;
24555;SDS011;12725;49.440;10.954;2023-05-14T02:40:45;5.72;;;3.55;;
24555;SDS011;12725;49.440;10.954;2023-05-14T02:44:45;9.13;;;3.38;;
24555;SDS011;12725;49.440;10.954;2023-05-14T02:48:46;7.65;;;4.43;;
24555;SDS011;12725;49.440;10.954;2023-05-14T02:52:46;9.85;;;6.25;;
24555;SDS011;12725;49.440;10.954;2023-05-14T02:56:46;8.40;;;4.05;;
24555;SDS011;12725;49.440;10.954;2023-05-14T03:00:47;6.32;;;4.30;;
24555;SDS011;12725;49.440;10.954;2023-05-14T03:04:47;6.43;;;4.47;;
24555;SDS011;12725;49.440;10.954;2023-05-14T03:08:48;4.60;;;3.07;;
24555;SDS011;12725;49.440;10.954;2023-05-14T03:12:48;6.40;;;4.00;;
24555;SDS011;12725;49.440;10.954;2023-05-14T03:16:48;5.47;;;3.35;;
24555;SDS011;12725;49.440;10.954;2023-05-14T03:20:49;4.05;;;2.65;;
24555;SDS011;12725;49.440;10.954;2023-05-14T03:24:49;7.05;;;4.07;;
24555;SDS011;12725;49.440;10.954;2023-05-14T03:28:49;3.65;;;2.83;;
24555;SDS011;12725;49.440;10.954;2023-05-14T03:32:50;8.57;;;3.90;;
24555;SDS011;12725;49.440;10.954;2023-05-14T03:36:50;7.10;;;3.92;;
24555;SDS011;12725;49.440;10.954;2023-05-14T03:40:51;7.20;;;4.53;;
24555;SDS011;12725;49.440;10.954;2023-05-14T03:44:52;8.50;;;4.88;;
24555;SDS011;12725;49.440;10.954;2023-05-14T03:48:52;7.88;;;3.72;;
24555;SDS011;12725;49.440;10.954;2023-05-14T03:52:53;6.63;;;3.40;;
24555;SDS011;12725;49.440;10.954;2023-05-14T03:56:54;7.60;;;4.40;;
24555;SDS011;12725;49.440;10.954;2023-05-14T04:00:54;7.90;;;4.05;;
24555;SDS011;12725;49.440;10.954;2023-05-14T04:04:54;4.88;;;3.47;;
24555;SDS011;12725;49.440;10.954;2023-05-14T04:08:55;6.27;;;3.80;;
24555;SDS011;12725;49.440;10.954;2023-05-14T04:12:55;5.57;;;3.50;;
24555;SDS011;12725;49.440;10.954;2023-05-14T04:16:55;5.32;;;3.17;;
24555;SDS011;12725;49.440;10.954;2023-05-14T04:20:56;6.43;;;4.60;;
24555;SDS011;12725;49.440;10.954;2023-05-14T04:24:56;7.10;;;4.67;;
24555;SDS011;12725;49.440;10.954;2023-05-14T04:28:56;6.83;;;4.50;;
24555;SDS011;12725;49.440;10.954;2023-05-14T04:32:57;6.65;;;4.50;;
24555;SDS011;12725;49.440;10.954;2023-05-14T04:36:57;5.17;;;3.37;;
24555;SDS011;12725;49.440;10.954;2023-05-14T04:40:57;4.53;;;3.25;;
24555;SDS011;12725;49.440;10.954;2023-05-14T04:44:58;7.20;;;4.50;;
24555;SDS011;12725;49.440;10.954;2023-05-14T04:48:58;6.68;;;4.28;;
24555;SDS011;12725;49.440;10.954;2023-05-14T04:52:59;9.10;;;5.40;;
24555;SDS011;12725;49.440;10.954;2023-05-14T04:57:00;9.18;;;5.55;;
24555;SDS011;12725;49.440;10.954;2023-05-14T05:01:03;7.60;;;4.80;;
24555;SDS011;12725;49.440;10.954;2023-05-14T05:05:05;6.88;;;3.78;;
24555;SDS011;12725;49.440;10.954;2023-05-14T05:09:05;6.32;;;4.75;;
24555;SDS011;12725;49.440;10.954;2023-05-14T05:13:05;9.73;;;5.32;;
24555;SDS011;12725;49.440;10.954;2023-05-14T05:17:06;7.03;;;4.60;;
24555;SDS011;12725;49.440;10.954;2023-05-14T05:21:06;8.27;;;4.88;;
24555;SDS011;12725;49.440;10.954;2023-05-14T05:25:07;5.18;;;3.80;;
24555;SDS011;12725;49.440;10.954;2023-05-14T05:29:08;5.10;;;3.97;;
24555;SDS011;12725;49.440;10.954;2023-05-14T05:33:08;4.45;;;3.70;;
24555;SDS011;12725;49.440;10.954;2023-05-14T05:37:08;6.53;;;4.32;;
24555;SDS011;12725;49.440;10.954;2023-05-14T05:41:11;5.57;;;4.20;;
24555;SDS011;12725;49.440;10.954;2023-05-14T05:45:12;10.70;;;3.95;;
24555;SDS011;12725;49.440;10.954;2023-05-14T05:49:12;6.73;;;3.83;;
24555;SDS011;12725;49.440;10.954;2023-05-14T05:53:12;7.05;;;4.22;;
24555;SDS011;12725;49.440;10.954;2023-05-14T05:57:15;15.07;;;3.80;;
24555;SDS011;12725;49.440;10.954;2023-05-14T06:01:15;8.00;;;3.95;;
24555;SDS011;12725;49.440;10.954;2023-05-14T06:05:16;5.60;;;3.83;;
24555;SDS011;12725;49.440;10.954;2023-05-14T06:09:17;4.85;;;3.22;;
24555;SDS011;12725;49.440;10.954;2023-05-14T06:13:18;5.18;;;3.50;;
24555;SDS011;12725;49.440;10.954;2023-05-14T06:17:18;5.13;;;3.67;;
24555;SDS011;12725;49.440;10.954;2023-05-14T06:21:18;4.33;;;3.30;;
24555;SDS011;12725;49.440;10.954;2023-05-14T06:25:19;4.72;;;3.00;;
24555;SDS011;12725;49.440;10.954;2023-05-14T06:29:19;6.45;;;3.70;;
24555;SDS011;12725;49.440;10.954;2023-05-14T06:33:20;6.10;;;3.23;;
24555;SDS011;12725;49.440;10.954;2023-05-14T06:37:28;3.60;;;2.88;;
24555;SDS011;12725;49.440;10.954;2023-05-14T06:41:28;4.32;;;3.05;;
24555;SDS011;12725;49.440;10.954;2023-05-14T06:45:29;3.97;;;3.10;;
24555;SDS011;12725;49.440;10.954;2023-05-14T06:49:29;4.60;;;3.58;;
24555;SDS011;12725;49.440;10.954;2023-05-14T06:53:30;6.10;;;2.90;;
24555;SDS011;12725;49.440;10.954;2023-05-14T06:57:30;5.32;;;3.00;;
24555;SDS011;12725;49.440;10.954;2023-05-14T07:01:31;5.00;;;3.40;;
24555;SDS011;12725;49.440;10.954;2023-05-14T07:05:31;5.37;;;3.23;;
24555;SDS011;12725;49.440;10.954;2023-05-14T07:09:31;3.83;;;2.75;;
24555;SDS011;12725;49.440;10.954;2023-05-14T07:13:32;4.13;;;3.53;;
24555;SDS011;12725;49.440;10.954;2023-05-14T07:17:32;4.57;;;2.97;;
24555;SDS011;12725;49.440;10.954;2023-05-14T07:21:33;3.28;;;2.60;;
24555;SDS011;12725;49.440;10.954;2023-05-14T07:25:34;4.40;;;2.92;;
24555;SDS011;12725;49.440;10.954;2023-05-14T07:29:35;6.63;;;2.53;;
24555;SDS011;12725;49.440;10.954;2023-05-14T07:33:35;3.60;;;2.95;;
24555;SDS011;12725;49.440;10.954;2023-05-14T07:37:36;4.57;;;3.27;;
24555;SDS011;12725;49.440;10.954;2023-05-14T07:41:36;3.83;;;3.40;;
24555;SDS011;12725;49.440;10.954;2023-05-14T07:45:37;5.03;;;3.05;;
24555;SDS011;12725;49.440;10.954;2023-05-14T07:49:38;4.38;;;2.95;;
24555;SDS011;12725;49.440;10.954;2023-05-14T07:53:38;4.25;;;3.08;;
24555;SDS011;12725;49.440;10.954;2023-05-14T07:57:39;4.22;;;3.08;;
24555;SDS011;12725;49.440;10.954;2023-05-14T08:01:39;4.63;;;3.47;;
24555;SDS011;12725;49.440;10.954;2023-05-14T08:05:40;7.43;;;3.60;;
24555;SDS011;12725;49.440;10.954;2023-05-14T08:09:41;2.77;;;2.30;;
24555;SDS011;12725;49.440;10.954;2023-05-14T08:13:41;2.50;;;2.20;;
24555;SDS011;12725;49.440;10.954;2023-05-14T08:17:41;3.93;;;2.73;;
24555;SDS011;12725;49.440;10.954;2023-05-14T08:21:42;3.38;;;2.40;;
24555;SDS011;12725;49.440;10.954;2023-05-14T08:25:43;3.53;;;2.50;;
24555;SDS011;12725;49.440;10.954;2023-05-14T08:29:43;3.40;;;2.33;;
24555;SDS011;12725;49.440;10.954;2023-05-14T08:33:43;2.63;;;2.40;;
24555;SDS011;12725;49.440;10.954;2023-05-14T08:37:44;3.67;;;2.67;;
24555;SDS011;12725;49.440;10.954;2023-05-14T08:41:44;3.50;;;2.72;;
24555;SDS011;12725;49.440;10.954;2023-05-14T08:45:45;4.57;;;2.78;;
24555;SDS011;12725;49.440;10.954;2023-05-14T08:49:48;5.43;;;2.38;;
24555;SDS011;12725;49.440;10.954;2023-05-14T08:53:52;3.65;;;2.60;;
24555;SDS011;12725;49.440;10.954;2023-05-14T08:57:52;2.47;;;2.28;;
24555;SDS011;12725;49.440;10.954;2023-05-14T09:01:55;3.03;;;2.15;;
24555;SDS011;12725;49.440;10.954;2023-05-14T09:05:55;4.30;;;3.03;;
24555;SDS011;12725;49.440;10.954;2023-05-14T09:09:56;4.00;;;2.92;;
24555;SDS011;12725;49.440;10.954;2023-05-14T09:13:57;5.22;;;2.55;;
24555;SDS011;12725;49.440;10.954;2023-05-14T09:18:03;3.42;;;2.60;;
24555;SDS011;12725;49.440;10.954;2023-05-14T09:22:07;3.65;;;2.83;;
24555;SDS011;12725;49.440;10.954;2023-05-14T09:26:15;4.07;;;2.90;;
24555;SDS011;12725;49.440;10.954;2023-05-14T09:30:16;3.83;;;3.05;;
24555;SDS011;12725;49.440;10.954;2023-05-14T09:38:31;4.40;;;2.88;;
24555;SDS011;12725;49.440;10.954;2023-05-14T09:42:31;3.90;;;2.20;;
24555;SDS011;12725;49.440;10.954;2023-05-14T09:46:32;4.20;;;3.13;;
24555;SDS011;12725;49.440;10.954;2023-05-14T09:50:34;5.93;;;4.10;;
24555;SDS011;12725;49.440;10.954;2023-05-14T09:54:41;2.65;;;2.17;;
24555;SDS011;12725;49.440;10.954;2023-05-14T09:58:41;2.85;;;2.10;;
24555;SDS011;12725;49.440;10.954;2023-05-14T10:02:41;4.38;;;2.30;;
24555;SDS011;12725;49.440;10.954;2023-05-14T10:06:43;2.90;;;2.20;;
24555;SDS011;12725;49.440;10.954;2023-05-14T10:10:47;6.05;;;2.75;;
24555;SDS011;12725;49.440;10.954;2023-05-14T10:14:50;6.72;;;2.47;;
24555;SDS011;12725;49.440;10.954;2023-05-14T10:18:55;4.53;;;2.60;;
24555;SDS011;12725;49.440;10.954;2023-05-14T10:23:00;3.50;;;2.42;;
24555;SDS011;12725;49.440;10.954;2023-05-14T10:27:01;3.15;;;2.08;;
24555;SDS011;12725;49.440;10.954;2023-05-14T10:31:01;3.42;;;2.33;;
24555;SDS011;12725;49.440;10.954;2023-05-14T10:35:06;3.25;;;2.47;;
24555;SDS011;12725;49.440;10.954;2023-05-14T10:39:14;2.42;;;1.85;;
24555;SDS011;12725;49.440;10.954;2023-05-14T10:43:15;6.05;;;1.95;;
24555;SDS011;12725;49.440;10.954;2023-05-14T10:47:16;7.28;;;2.00;;
24555;SDS011;12725;49.440;10.954;2023-05-14T10:51:17;3.03;;;2.08;;
24555;SDS011;12725;49.440;10.954;2023-05-14T10:55:19;2.28;;;1.80;;
24555;SDS011;12725;49.440;10.954;2023-05-14T10:59:23;2.03;;;1.85;;
24555;SDS011;12725;49.440;10.954;2023-05-14T11:03:29;4.07;;;2.90;;
24555;SDS011;12725;49.440;10.954;2023-05-14T11:07:33;2.03;;;1.42;;
24555;SDS011;12725;49.440;10.954;2023-05-14T11:11:36;2.20;;;1.77;;
24555;SDS011;12725;49.440;10.954;2023-05-14T11:15:36;2.33;;;1.85;;
24555;SDS011;12725;49.440;10.954;2023-05-14T11:19:37;2.05;;;1.85;;
24555;SDS011;12725;49.440;10.954;2023-05-14T11:23:38;2.15;;;1.95;;
24555;SDS011;12725;49.440;10.954;2023-05-14T11:27:39;2.22;;;1.80;;
24555;SDS011;12725;49.440;10.954;2023-05-14T11:31:40;3.13;;;2.15;;
24555;SDS011;12725;49.440;10.954;2023-05-14T11:35:40;2.63;;;2.03;;
24555;SDS011;12725;49.440;10.954;2023-05-14T11:39:48;2.92;;;2.47;;
24555;SDS011;12725;49.440;10.954;2023-05-14T11:43:51;2.75;;;2.05;;
24555;SDS011;12725;49.440;10.954;2023-05-14T11:47:51;2.53;;;2.03;;
24555;SDS011;12725;49.440;10.954;2023-05-14T11:51:56;3.35;;;2.28;;
24555;SDS011;12725;49.440;10.954;2023-05-14T11:55:57;5.47;;;2.65;;
24555;SDS011;12725;49.440;10.954;2023-05-14T11:59:58;2.13;;;1.92;;
24555;SDS011;12725;49.440;10.954;2023-05-14T12:03:59;4.67;;;2.73;;
24555;SDS011;12725;49.440;10.954;2023-05-14T12:07:59;3.13;;;1.90;;
24555;SDS011;12725;49.440;10.954;2023-05-14T12:12:06;2.25;;;2.03;;
24555;SDS011;12725;49.440;10.954;2023-05-14T12:16:07;2.97;;;1.90;;
24555;SDS011;12725;49.440;10.954;2023-05-14T12:20:08;2.55;;;1.88;;
24555;SDS011;12725;49.440;10.954;2023-05-14T12:24:13;3.53;;;2.30;;
24555;SDS011;12725;49.440;10.954;2023-05-14T12:28:18;3.77;;;2.27;;
24555;SDS011;12725;49.440;10.954;2023-05-14T12:32:19;2.28;;;2.05;;
24555;SDS011;12725;49.440;10.954;2023-05-14T12:36:19;3.13;;;1.80;;
24555;SDS011;12725;49.440;10.954;2023-05-14T12:40:20;2.17;;;1.98;;
24555;SDS011;12725;49.440;10.954;2023-05-14T12:44:21;3.37;;;2.27;;
24555;SDS011;12725;49.440;10.954;2023-05-14T12:48:21;2.88;;;2.50;;
24555;SDS011;12725;49.440;10.954;2023-05-14T12:52:23;2.47;;;2.20;;
24555;SDS011;12725;49.440;10.954;2023-05-14T12:56:23;3.45;;;1.95;;
24555;SDS011;12725;49.440;10.954;2023-05-14T13:00:27;5.18;;;2.10;;
24555;SDS011;12725;49.440;10.954;2023-05-14T13:04:28;4.05;;;2.40;;
24555;SDS011;12725;49.440;10.954;2023-05-14T13:08:28;3.10;;;1.52;;
24555;SDS011;12725;49.440;10.954;2023-05-14T13:12:28;2.00;;;1.63;;
24555;SDS011;12725;49.440;10.954;2023-05-14T13:16:29;2.70;;;2.00;;
24555;SDS011;12725;49.440;10.954;2023-05-14T13:20:30;2.97;;;2.38;;
24555;SDS011;12725;49.440;10.954;2023-05-14T13:24:32;3.25;;;2.50;;
24555;SDS011;12725;49.440;10.954;2023-05-14T13:28:33;2.50;;;2.17;;
24555;SDS011;12725;49.440;10.954;2023-05-14T13:32:33;2.20;;;2.00;;
24555;SDS011;12725;49.440;10.954;2023-05-14T13:36:34;2.22;;;2.03;;
24555;SDS011;12725;49.440;10.954;2023-05-14T13:40:38;3.17;;;1.90;;
24555;SDS011;12725;49.440;10.954;2023-05-14T13:44:38;1.48;;;1.27;;
24555;SDS011;12725;49.440;10.954;2023-05-14T13:48:39;2.20;;;1.52;;
24555;SDS011;12725;49.440;10.954;2023-05-14T13:52:41;1.70;;;1.48;;
24555;SDS011;12725;49.440;10.954;2023-05-14T13:56:41;2.13;;;1.77;;
24555;SDS011;12725;49.440;10.954;2023-05-14T14:00:42;4.15;;;1.92;;
24555;SDS011;12725;49.440;10.954;2023-05-14T14:04:42;4.25;;;2.05;;
24555;SDS011;12725;49.440;10.954;2023-05-14T14:08:43;2.35;;;2.00;;
24555;SDS011;12725;49.440;10.954;2023-05-14T14:12:43;2.88;;;1.83;;
24555;SDS011;12725;49.440;10.954;2023-05-14T14:16:47;1.38;;;1.27;;
24555;SDS011;12725;49.440;10.954;2023-05-14T14:20:47;2.03;;;1.67;;
24555;SDS011;12725;49.440;10.954;2023-05-14T14:24:48;1.98;;;1.50;;
24555;SDS011;12725;49.440;10.954;2023-05-14T14:28:48;1.98;;;1.52;;
24555;SDS011;12725;49.440;10.954;2023-05-14T14:32:49;2.83;;;2.22;;
24555;SDS011;12725;49.440;10.954;2023-05-14T14:36:49;1.60;;;1.50;;
24555;SDS011;12725;49.440;10.954;2023-05-14T14:40:50;2.83;;;1.88;;
24555;SDS011;12725;49.440;10.954;2023-05-14T14:44:50;1.58;;;1.48;;
24555;SDS011;12725;49.440;10.954;2023-05-14T14:48:51;3.42;;;1.92;;
24555;SDS011;12725;49.440;10.954;2023-05-14T14:52:51;2.75;;;1.48;;
24555;SDS011;12725;49.440;10.954;2023-05-14T14:56:52;1.75;;;1.65;;
24555;SDS011;12725;49.440;10.954;2023-05-14T15:00:53;1.98;;;1.50;;
24555;SDS011;12725;49.440;10.954;2023-05-14T15:04:55;1.63;;;1.38;;
24555;SDS011;12725;49.440;10.954;2023-05-14T15:08:55;1.60;;;1.42;;
24555;SDS011;12725;49.440;10.954;2023-05-14T15:12:59;3.20;;;1.90;;
24555;SDS011;12725;49.440;10.954;2023-05-14T15:16:59;2.65;;;1.92;;
24555;SDS011;12725;49.440;10.954;2023-05-14T15:20:59;2.23;;;1.83;;
24555;SDS011;12725;49.440;10.954;2023-05-14T15:25:00;3.38;;;1.80;;
24555;SDS011;12725;49.440;10.954;2023-05-14T15:29:00;1.58;;;1.48;;
24555;SDS011;12725;49.440;10.954;2023-05-14T15:33:00;5.10;;;1.60;;
24555;SDS011;12725;49.440;10.954;2023-05-14T15:37:01;1.38;;;1.27;;
24555;SDS011;12725;49.440;10.954;2023-05-14T15:41:01;1.48;;;1.38;;
24555;SDS011;12725;49.440;10.954;2023-05-14T15:45:03;1.75;;;1.45;;
24555;SDS011;12725;49.440;10.954;2023-05-14T15:49:04;2.15;;;1.85;;
24555;SDS011;12725;49.440;10.954;2023-05-14T15:53:05;2.85;;;1.85;;
24555;SDS011;12725;49.440;10.954;2023-05-14T15:57:05;3.30;;;2.15;;
24555;SDS011;12725;49.440;10.954;2023-05-14T16:01:06;1.95;;;1.70;;
24555;SDS011;12725;49.440;10.954;2023-05-14T16:05:06;2.13;;;1.60;;
24555;SDS011;12725;49.440;10.954;2023-05-14T16:09:07;1.85;;;1.73;;
24555;SDS011;12725;49.440;10.954;2023-05-14T16:13:08;3.45;;;1.92;;
24555;SDS011;12725;49.440;10.954;2023-05-14T16:17:08;5.13;;;2.90;;
24555;SDS011;12725;49.440;10.954;2023-05-14T16:21:09;4.30;;;3.53;;
24555;SDS011;12725;49.440;10.954;2023-05-14T16:25:09;2.10;;;1.90;;
24555;SDS011;12725;49.440;10.954;2023-05-14T16:29:10;2.50;;;2.05;;
24555;SDS011;12725;49.440;10.954;2023-05-14T16:33:10;2.15;;;1.77;;
24555;SDS011;12725;49.440;10.954;2023-05-14T16:37:12;2.73;;;2.43;;
24555;SDS011;12725;49.440;10.954;2023-05-14T16:41:14;2.60;;;1.92;;
24555;SDS011;12725;49.440;10.954;2023-05-14T16:45:14;2.42;;;1.95;;
24555;SDS011;12725;49.440;10.954;2023-05-14T16:49:14;2.58;;;2.08;;
24555;SDS011;12725;49.440;10.954;2023-05-14T16:53:15;2.10;;;1.88;;
24555;SDS011;12725;49.440;10.954;2023-05-14T16:57:17;1.92;;;1.73;;
24555;SDS011;12725;49.440;10.954;2023-05-14T17:01:17;2.75;;;2.20;;
24555;SDS011;12725;49.440;10.954;2023-05-14T17:05:18;2.90;;;2.08;;
24555;SDS011;12725;49.440;10.954;2023-05-14T17:09:19;5.22;;;2.08;;
24555;SDS011;12725;49.440;10.954;2023-05-14T17:13:20;2.33;;;1.83;;
24555;SDS011;12725;49.440;10.954;2023-05-14T17:17:20;1.80;;;1.48;;
24555;SDS011;12725;49.440;10.954;2023-05-14T17:21:24;2.57;;;1.77;;
24555;SDS011;12725;49.440;10.954;2023-05-14T17:25:24;1.52;;;1.30;;
24555;SDS011;12725;49.440;10.954;2023-05-14T17:29:25;2.13;;;1.77;;
24555;SDS011;12725;49.440;10.954;2023-05-14T17:33:27;2.30;;;2.03;;
24555;SDS011;12725;49.440;10.954;2023-05-14T17:37:27;1.92;;;1.73;;
24555;SDS011;12725;49.440;10.954;2023-05-14T17:41:27;4.93;;;2.38;;
24555;SDS011;12725;49.440;10.954;2023-05-14T17:45:28;1.80;;;1.70;;
24555;SDS011;12725;49.440;10.954;2023-05-14T17:49:28;2.70;;;1.98;;
24555;SDS011;12725;49.440;10.954;2023-05-14T17:53:30;2.83;;;1.65;;
24555;SDS011;12725;49.440;10.954;2023-05-14T17:57:30;1.70;;;1.60;;
24555;SDS011;12725;49.440;10.954;2023-05-14T18:01:31;3.63;;;1.83;;
24555;SDS011;12725;49.440;10.954;2023-05-14T18:05:31;2.15;;;1.92;;
24555;SDS011;12725;49.440;10.954;2023-05-14T18:09:31;3.08;;;2.22;;
24555;SDS011;12725;49.440;10.954;2023-05-14T18:13:32;3.40;;;2.20;;
24555;SDS011;12725;49.440;10.954;2023-05-14T18:17:32;3.40;;;2.22;;
24555;SDS011;12725;49.440;10.954;2023-05-14T18:21:33;3.50;;;2.10;;
24555;SDS011;12725;49.440;10.954;2023-05-14T18:25:33;2.78;;;2.22;;
24555;SDS011;12725;49.440;10.954;2023-05-14T18:29:34;4.15;;;2.67;;
24555;SDS011;12725;49.440;10.954;2023-05-14T18:33:34;1.83;;;1.60;;
24555;SDS011;12725;49.440;10.954;2023-05-14T18:37:35;2.33;;;2.05;;
24555;SDS011;12725;49.440;10.954;2023-05-14T18:41:35;2.45;;;2.10;;
24555;SDS011;12725;49.440;10.954;2023-05-14T18:45:36;2.50;;;2.08;;
24555;SDS011;12725;49.440;10.954;2023-05-14T18:49:36;3.17;;;2.30;;
24555;SDS011;12725;49.440;10.954;2023-05-14T18:53:41;2.53;;;1.98;;
24555;SDS011;12725;49.440;10.954;2023-05-14T18:57:41;2.33;;;1.95;;
24555;SDS011;12725;49.440;10.954;2023-05-14T19:01:42;1.77;;;1.67;;
24555;SDS011;12725;49.440;10.954;2023-05-14T19:05:42;6.32;;;2.20;;
24555;SDS011;12725;49.440;10.954;2023-05-14T19:09:42;3.53;;;2.33;;
24555;SDS011;12725;49.440;10.954;2023-05-14T19:13:43;2.25;;;1.88;;
24555;SDS011;12725;49.440;10.954;2023-05-14T19:17:48;1.90;;;1.75;;
24555;SDS011;12725;49.440;10.954;2023-05-14T19:21:49;1.55;;;1.33;;
24555;SDS011;12725;49.440;10.954;2023-05-14T19:25:49;1.95;;;1.75;;
24555;SDS011;12725;49.440;10.954;2023-05-14T19:29:50;3.67;;;2.00;;
24555;SDS011;12725;49.440;10.954;2023-05-14T19:33:50;3.67;;;2.40;;
24555;SDS011;12725;49.440;10.954;2023-05-14T19:37:52;1.77;;;1.58;;
24555;SDS011;12725;49.440;10.954;2023-05-14T19:41:52;1.60;;;1.42;;
24555;SDS011;12725;49.440;10.954;2023-05-14T19:45:53;2.17;;;1.70;;
24555;SDS011;12725;49.440;10.954;2023-05-14T19:49:53;1.70;;;1.42;;
24555;SDS011;12725;49.440;10.954;2023-05-14T19:53:55;1.88;;;1.60;;
24555;SDS011;12725;49.440;10.954;2023-05-14T19:57:55;2.38;;;2.17;;
24555;SDS011;12725;49.440;10.954;2023-05-14T20:01:56;2.20;;;1.90;;
24555;SDS011;12725;49.440;10.954;2023-05-14T20:06:00;2.70;;;2.33;;
24555;SDS011;12725;49.440;10.954;2023-05-14T20:10:01;2.58;;;1.85;;
24555;SDS011;12725;49.440;10.954;2023-05-14T20:14:02;2.17;;;1.70;;
24555;SDS011;12725;49.440;10.954;2023-05-14T20:18:02;1.65;;;1.48;;
24555;SDS011;12725;49.440;10.954;2023-05-14T20:22:03;1.90;;;1.60;;
24555;SDS011;12725;49.440;10.954;2023-05-14T20:26:03;1.65;;;1.55;;
24555;SDS011;12725;49.440;10.954;2023-05-14T20:30:05;2.33;;;1.85;;
24555;SDS011;12725;49.440;10.954;2023-05-14T20:34:06;3.25;;;2.45;;
24555;SDS011;12725;49.440;10.954;2023-05-14T20:38:08;6.18;;;2.28;;
24555;SDS011;12725;49.440;10.954;2023-05-14T20:42:09;2.08;;;1.85;;
24555;SDS011;12725;49.440;10.954;2023-05-14T20:46:09;2.08;;;1.65;;
24555;SDS011;12725;49.440;10.954;2023-05-14T20:50:10;3.17;;;2.40;;
24555;SDS011;12725;49.440;10.954;2023-05-14T20:54:11;3.40;;;2.30;;
24555;SDS011;12725;49.440;10.954;2023-05-14T20:58:11;3.80;;;2.35;;
24555;SDS011;12725;49.440;10.954;2023-05-14T21:02:11;5.50;;;2.28;;
24555;SDS011;12725;49.440;10.954;2023-05-14T21:06:12;2.75;;;2.22;;
24555;SDS011;12725;49.440;10.954;2023-05-14T21:10:12;3.10;;;2.38;;
24555;SDS011;12725;49.440;10.954;2023-05-14T21:14:13;2.97;;;2.15;;
24555;SDS011;12725;49.440;10.954;2023-05-14T21:18:13;3.83;;;2.60;;
24555;SDS011;12725;49.440;10.954;2023-05-14T21:22:14;5.15;;;2.80;;
24555;SDS011;12725;49.440;10.954;2023-05-14T21:26:14;3.08;;;2.55;;
24555;SDS011;12725;49.440;10.954;2023-05-14T21:30:14;1.90;;;1.75;;
24555;SDS011;12725;49.440;10.954;2023-05-14T21:34:15;4.13;;;2.70;;
24555;SDS011;12725;49.440;10.954;2023-05-14T21:38:15;4.35;;;2.80;;
24555;SDS011;12725;49.440;10.954;2023-05-14T21:42:16;3.63;;;2.50;;
24555;SDS011;12725;49.440;10.954;2023-05-14T21:46:17;4.18;;;2.53;;
24555;SDS011;12725;49.440;10.954;2023-05-14T21:50:18;2.50;;;2.30;;
24555;SDS011;12725;49.440;10.954;2023-05-14T21:54:19;3.08;;;2.50;;
24555;SDS011;12725;49.440;10.954;2023-05-14T21:58:20;2.25;;;2.00;;
24555;SDS011;12725;49.440;10.954;2023-05-14T22:02:21;3.58;;;2.70;;
24555;SDS011;12725;49.440;10.954;2023-05-14T22:06:21;2.00;;;1.80;;
24555;SDS011;12725;49.440;10.954;2023-05-14T22:10:21;3.20;;;2.30;;
24555;SDS011;12725;49.440;10.954;2023-05-14T22:14:22;3.28;;;2.67;;
24555;SDS011;12725;49.440;10.954;2023-05-14T22:18:23;3.65;;;2.80;;
24555;SDS011;12725;49.440;10.954;2023-05-14T22:22:23;3.50;;;2.33;;
24555;SDS011;12725;49.440;10.954;2023-05-14T22:26:23;4.27;;;2.43;;
24555;SDS011;12725;49.440;10.954;2023-05-14T22:30:25;3.85;;;2.70;;
24555;SDS011;12725;49.440;10.954;2023-05-14T22:34:26;3.00;;;2.38;;
24555;SDS011;12725;49.440;10.954;2023-05-14T22:38:26;3.83;;;2.33;;
24555;SDS011;12725;49.440;10.954;2023-05-14T22:42:26;2.58;;;2.38;;
24555;SDS011;12725;49.440;10.954;2023-05-14T22:46:27;4.50;;;2.25;;
24555;SDS011;12725;49.440;10.954;2023-05-14T22:50:28;3.88;;;2.88;;
24555;SDS011;12725;49.440;10.954;2023-05-14T22:54:29;3.38;;;2.65;;
24555;SDS011;12725;49.440;10.954;2023-05-14T22:58:29;5.53;;;3.33;;
24555;SDS011;12725;49.440;10.954;2023-05-14T23:02:29;6.60;;;2.50;;
24555;SDS011;12725;49.440;10.954;2023-05-14T23:06:30;2.78;;;2.08;;
24555;SDS011;12725;49.440;10.954;2023-05-14T23:10:30;2.45;;;2.20;;
24555;SDS011;12725;49.440;10.954;2023-05-14T23:14:31;3.67;;;2.47;;
24555;SDS011;12725;49.440;10.954;2023-05-14T23:18:31;4.93;;;2.45;;
24555;SDS011;12725;49.440;10.954;2023-05-14T23:22:32;3.17;;;2.35;;
24555;SDS011;12725;49.440;10.954;2023-05-14T23:26:32;3.53;;;2.45;;
24555;SDS011;12725;49.440;10.954;2023-05-14T23:30:32;2.45;;;2.22;;
24555;SDS011;12725;49.440;10.954;2023-05-14T23:34:33;4.90;;;3.67;;
24555;SDS011;12725;49.440;10.954;2023-05-14T23:38:33;7.85;;;2.50;;
24555;SDS011;12725;49.440;10.954;2023-05-14T23:42:35;5.43;;;2.70;;
24555;SDS011;12725;49.440;10.954;2023-05-14T23:46:35;5.93;;;2.88;;
24555;SDS011;12725;49.440;10.954;2023-05-14T23:50:36;5.95;;;3.20;;
24555;SDS011;12725;49.440;10.954;2023-05-14T23:54:37;3.35;;;2.67;;